createdAt,value
2023-06-10T00:01:21.657Z,16.39
2023-06-10T00:03:49.485Z,16.35
2023-06-10T00:06:17.095Z,16.33
2023-06-10T00:08:44.427Z,16.27
2023-06-10T00:11:11.841Z,16.26
2023-06-10T00:13:39.119Z,16.22
2023-06-10T00:16:06.504Z,16.20
2023-06-10T00:18:33.922Z,16.15
2023-06-10T00:21:05.513Z,16.14
2023-06-10T00:23:38.855Z,16.13
2023-06-10T00:26:06.480Z,16.11
2023-06-10T00:28:33.943Z,16.08
2023-06-10T00:31:02.085Z,16.04
2023-06-10T00:33:29.407Z,16.01
2023-06-10T00:35:56.600Z,16.01
2023-06-10T00:38:24.401Z,16.01
2023-06-10T00:40:51.648Z,15.99
2023-06-10T00:43:18.968Z,15.98
2023-06-10T00:45:46.468Z,15.94
2023-06-10T00:48:14.471Z,15.92
2023-06-10T00:50:41.924Z,15.88
2023-06-10T00:53:09.556Z,15.85
2023-06-10T00:55:37.034Z,15.81
2023-06-10T00:58:05.022Z,15.76
2023-06-10T01:00:32.327Z,15.76
2023-06-10T01:02:59.834Z,15.75
2023-06-10T01:05:27.390Z,15.71
2023-06-10T01:08:03.490Z,15.70
2023-06-10T01:10:32.082Z,15.66
2023-06-10T01:13:09.362Z,15.62
2023-06-10T01:15:36.969Z,15.59
2023-06-10T01:18:16.221Z,15.56
2023-06-10T01:20:45.157Z,15.55
2023-06-10T01:23:12.751Z,15.55
2023-06-10T01:25:45.227Z,15.52
2023-06-10T01:28:28.421Z,15.49
2023-06-10T01:31:18.092Z,15.47
2023-06-10T01:33:48.696Z,15.45
2023-06-10T01:36:17.971Z,15.44
2023-06-10T01:38:47.043Z,15.42
2023-06-10T01:41:15.374Z,15.40
2023-06-10T01:43:44.837Z,15.36
2023-06-10T01:46:12.430Z,15.34
2023-06-10T01:48:40.006Z,15.31
2023-06-10T01:51:07.461Z,15.30
2023-06-10T01:53:34.878Z,15.27
2023-06-10T01:56:03.091Z,15.24
2023-06-10T01:58:30.536Z,15.20
2023-06-10T02:00:58.329Z,15.16
2023-06-10T02:03:25.767Z,15.15
2023-06-10T02:05:53.040Z,15.14
2023-06-10T02:08:20.482Z,15.12
2023-06-10T02:10:48.390Z,15.09
2023-06-10T02:13:15.704Z,15.07
2023-06-10T02:15:43.118Z,15.04
2023-06-10T02:18:12.976Z,15.01
2023-06-10T02:20:40.566Z,15.00
2023-06-10T02:23:07.807Z,14.97
2023-06-10T02:25:35.140Z,14.93
2023-06-10T02:28:04.534Z,14.92
2023-06-10T02:30:32.072Z,14.91
2023-06-10T02:33:00.400Z,14.92
2023-06-10T02:35:28.470Z,14.91
2023-06-10T02:37:55.841Z,14.92
2023-06-10T02:49:12.679Z,14.82
2023-06-10T02:51:40.250Z,14.81
2023-06-10T02:54:07.694Z,14.80
2023-06-10T02:56:35.003Z,14.80
2023-06-10T02:59:02.499Z,14.79
2023-06-10T03:01:33.142Z,14.76
2023-06-10T03:04:00.808Z,14.76
2023-06-10T03:06:28.510Z,14.77
2023-06-10T03:08:55.796Z,14.77
2023-06-10T03:11:24.008Z,14.79
2023-06-10T03:13:51.417Z,14.80
2023-06-10T03:16:19.636Z,14.79
2023-06-10T03:18:47.161Z,14.80
2023-06-10T03:21:14.553Z,14.81
2023-06-10T03:23:41.882Z,14.82
2023-06-10T03:26:11.069Z,14.83
2023-06-10T03:28:38.427Z,14.85
2023-06-10T03:31:05.797Z,14.84
2023-06-10T03:33:33.624Z,14.85
2023-06-10T03:36:00.927Z,14.84
2023-06-10T03:38:28.604Z,14.87
2023-06-10T03:40:55.799Z,14.89
2023-06-10T03:43:23.007Z,14.90
2023-06-10T03:45:50.650Z,14.89
2023-06-10T03:48:18.436Z,14.90
2023-06-10T03:50:45.896Z,14.89
2023-06-10T03:53:13.536Z,14.88
2023-06-10T03:55:42.097Z,14.93
2023-06-10T03:58:09.729Z,14.95
2023-06-10T04:00:42.562Z,14.98
2023-06-10T04:03:10.710Z,14.99
2023-06-10T04:05:38.018Z,14.98
2023-06-10T04:08:06.306Z,15.01
2023-06-10T04:10:33.681Z,15.02
2023-06-10T04:13:01.069Z,15.03
2023-06-10T04:15:28.542Z,15.04
2023-06-10T04:17:56.430Z,15.07
2023-06-10T04:20:23.689Z,15.12
2023-06-10T04:22:51.009Z,15.18
2023-06-10T04:25:18.475Z,15.27
2023-06-10T04:27:45.766Z,15.34
2023-06-10T04:30:14.253Z,15.37
2023-06-10T04:32:41.472Z,15.41
2023-06-10T04:35:09.815Z,15.44
2023-06-10T04:37:37.297Z,15.43
2023-06-10T04:40:05.440Z,15.48
2023-06-10T04:42:33.460Z,15.51
2023-06-10T04:45:00.926Z,15.56
2023-06-10T04:47:28.506Z,15.58
2023-06-10T04:49:55.778Z,15.62
2023-06-10T04:52:23.136Z,15.67
2023-06-10T04:54:50.407Z,15.73
2023-06-10T04:57:18.366Z,15.80
2023-06-10T04:59:45.715Z,15.87
2023-06-10T05:02:13.261Z,15.94
2023-06-10T05:04:40.984Z,16.01
2023-06-10T05:07:08.189Z,16.06
2023-06-10T05:09:35.896Z,16.11
2023-06-10T05:12:03.973Z,16.15
2023-06-10T05:14:31.477Z,16.22
2023-06-10T05:16:58.744Z,16.28
2023-06-10T05:19:26.334Z,16.37
2023-06-10T05:21:53.603Z,16.47
2023-06-10T05:24:20.902Z,16.63
2023-06-10T05:26:49.738Z,16.78
2023-06-10T05:29:17.114Z,16.96
2023-06-10T05:31:44.403Z,17.15
2023-06-10T05:34:11.917Z,17.37
2023-06-10T05:36:39.145Z,17.59
2023-06-10T05:39:06.716Z,17.81
2023-06-10T05:41:34.163Z,18.01
2023-06-10T05:44:02.062Z,18.21
2023-06-10T05:46:29.703Z,18.45
2023-06-10T05:48:57.037Z,18.69
2023-06-10T05:51:24.279Z,18.92
2023-06-10T05:53:51.591Z,19.16
2023-06-10T05:56:18.998Z,19.39
2023-06-10T05:58:46.529Z,19.53
2023-06-10T06:01:13.808Z,19.63
2023-06-10T06:03:41.131Z,19.70
2023-06-10T06:06:08.401Z,19.77
2023-06-10T06:08:36.009Z,19.86
2023-06-10T06:11:03.529Z,19.96
2023-06-10T06:13:30.942Z,20.09
2023-06-10T06:15:58.743Z,20.21
2023-06-10T06:18:26.098Z,20.24
2023-06-10T06:20:53.428Z,20.34
2023-06-10T06:23:20.983Z,20.46
2023-06-10T06:25:48.378Z,20.51
2023-06-10T06:28:15.585Z,20.67
2023-06-10T06:30:43.281Z,20.81
2023-06-10T06:33:10.716Z,20.97
2023-06-10T06:35:39.263Z,21.15
2023-06-10T06:38:06.580Z,21.26
2023-06-10T06:40:33.860Z,21.39
2023-06-10T06:43:01.334Z,21.45
2023-06-10T06:45:28.635Z,21.49
2023-06-10T06:47:57.236Z,21.60
2023-06-10T06:50:24.568Z,21.63
2023-06-10T06:52:51.747Z,21.69
2023-06-10T06:55:19.135Z,21.74
2023-06-10T06:57:46.394Z,21.73
2023-06-10T07:00:13.898Z,21.91
2023-06-10T07:02:41.294Z,22.12
2023-06-10T07:05:09.274Z,22.38
2023-06-10T07:07:36.891Z,22.66
2023-06-10T07:10:04.481Z,22.87
2023-06-10T07:12:32.031Z,23.00
2023-06-10T07:14:59.246Z,23.19
2023-06-10T07:17:27.997Z,23.39
2023-06-10T07:19:58.389Z,23.45
2023-06-10T07:22:25.649Z,23.51
2023-06-10T07:24:53.642Z,23.52
2023-06-10T07:27:20.901Z,23.52
2023-06-10T07:29:48.530Z,23.56
2023-06-10T07:32:17.814Z,23.43
2023-06-10T07:34:47.071Z,23.39
2023-06-10T07:37:14.388Z,23.22
2023-06-10T07:39:41.692Z,23.12
2023-06-10T07:42:09.076Z,22.97
2023-06-10T07:44:36.420Z,22.83
2023-06-10T07:47:03.968Z,22.70
2023-06-10T07:49:31.834Z,22.58
2023-06-10T07:51:59.075Z,22.51
2023-06-10T07:54:28.518Z,22.52
2023-06-10T07:56:57.414Z,22.53
2023-06-10T07:59:26.738Z,22.70
2023-06-10T08:01:54.469Z,23.06
2023-06-10T08:04:21.846Z,23.41
2023-06-10T08:06:49.241Z,23.71
2023-06-10T08:09:16.857Z,24.12
2023-06-10T08:11:44.425Z,24.40
2023-06-10T08:14:11.691Z,24.64
2023-06-10T08:16:38.943Z,24.89
2023-06-10T08:19:06.299Z,25.09
2023-06-10T08:21:34.615Z,25.20
2023-06-10T08:24:02.221Z,25.33
2023-06-10T08:26:29.612Z,25.41
2023-06-10T08:28:56.837Z,25.42
2023-06-10T08:31:24.111Z,25.42
2023-06-10T08:33:51.633Z,25.40
2023-06-10T08:36:18.928Z,25.32
2023-06-10T08:38:46.429Z,25.49
2023-06-10T08:41:15.838Z,25.77
2023-06-10T08:43:45.589Z,26.03
2023-06-10T08:46:15.248Z,26.23
2023-06-10T08:48:45.576Z,26.29
2023-06-10T08:51:15.188Z,26.39
2023-06-10T08:53:51.923Z,26.45
2023-06-10T08:56:19.518Z,26.50
2023-06-10T08:58:47.768Z,26.53
2023-06-10T09:01:15.172Z,26.72
2023-06-10T09:03:42.741Z,26.92
2023-06-10T09:06:10.306Z,26.96
2023-06-10T09:08:37.758Z,27.07
2023-06-10T09:11:05.031Z,26.97
2023-06-10T09:13:33.281Z,26.89
2023-06-10T09:16:03.041Z,26.89
2023-06-10T09:18:31.247Z,26.89
2023-06-10T09:20:58.814Z,26.81
2023-06-10T09:23:26.686Z,26.76
2023-06-10T09:25:58.083Z,26.54
2023-06-10T09:28:25.778Z,26.38
2023-06-10T09:31:06.625Z,26.25
2023-06-10T09:33:34.440Z,26.27
2023-06-10T09:36:03.510Z,26.10
2023-06-10T09:38:33.181Z,26.05
2023-06-10T09:41:02.496Z,25.98
2023-06-10T09:43:42.763Z,25.83
2023-06-10T09:46:20.157Z,25.87
2023-06-10T09:48:49.132Z,25.83
2023-06-10T09:51:18.312Z,25.77
2023-06-10T09:53:51.204Z,25.64
2023-06-10T09:56:18.973Z,25.49
2023-06-10T09:58:48.088Z,25.39
2023-06-10T10:01:16.825Z,25.34
2023-06-10T10:03:49.010Z,25.24
2023-06-10T10:06:18.280Z,25.11
2023-06-10T10:08:50.889Z,25.05
2023-06-10T10:11:19.591Z,24.93
2023-06-10T10:13:48.968Z,24.84
2023-06-10T10:16:18.419Z,24.84
2023-06-10T10:19:09.201Z,24.92
2023-06-10T10:21:41.132Z,24.92
2023-06-10T10:24:11.133Z,24.89
2023-06-10T10:26:39.572Z,24.89
2023-06-10T10:29:23.797Z,24.89
2023-06-10T10:31:56.459Z,24.87
2023-06-10T10:34:32.745Z,24.90
2023-06-10T10:37:00.181Z,24.94
2023-06-10T10:39:29.346Z,25.00
2023-06-10T10:41:57.054Z,25.10
2023-06-10T10:44:24.799Z,25.21
2023-06-10T10:46:52.248Z,25.30
2023-06-10T10:49:19.654Z,25.44
2023-06-10T10:52:00.023Z,25.74
2023-06-10T10:54:33.128Z,26.10
2023-06-10T10:57:13.985Z,26.42
2023-06-10T10:59:48.226Z,26.69
2023-06-10T11:02:41.587Z,26.89
2023-06-10T11:05:10.071Z,27.09
2023-06-10T11:07:37.827Z,27.26
2023-06-10T11:10:07.935Z,27.34
2023-06-10T11:12:55.398Z,27.38
2023-06-10T11:15:27.875Z,27.50
2023-06-10T11:18:14.741Z,27.67
2023-06-10T11:20:50.766Z,27.89
2023-06-10T11:23:29.983Z,28.23
2023-06-10T11:26:18.501Z,28.79
2023-06-10T11:28:48.621Z,29.31
2023-06-10T11:31:23.440Z,29.76
2023-06-10T11:33:53.394Z,30.18
2023-06-10T11:36:20.970Z,30.61
2023-06-10T11:38:49.510Z,30.87
2023-06-10T11:41:18.817Z,31.15
2023-06-10T11:43:49.093Z,31.33
2023-06-10T11:46:16.627Z,31.33
2023-06-10T11:48:51.880Z,31.43
2023-06-10T11:51:19.478Z,31.54
2023-06-10T11:53:48.226Z,31.70
2023-06-10T11:56:21.360Z,31.74
2023-06-10T11:59:06.782Z,31.70
2023-06-10T12:01:36.185Z,31.66
2023-06-10T12:04:11.020Z,31.60
2023-06-10T12:06:49.750Z,31.64
2023-06-10T12:09:54.594Z,31.58
2023-06-10T12:12:21.970Z,31.60
2023-06-10T12:14:56.658Z,31.63
2023-06-10T12:17:25.238Z,31.60
2023-06-10T12:19:52.916Z,31.61
2023-06-10T12:22:20.967Z,31.75
2023-06-10T12:25:03.105Z,31.78
2023-06-10T12:27:31.812Z,32.02
2023-06-10T12:30:05.287Z,32.15
2023-06-10T12:32:47.127Z,32.21
2023-06-10T12:35:19.111Z,32.30
2023-06-10T12:38:08.039Z,32.38
2023-06-10T12:40:39.008Z,32.49
2023-06-10T12:43:06.470Z,32.50
2023-06-10T12:45:35.688Z,32.55
2023-06-10T12:48:12.879Z,32.71
2023-06-10T12:50:41.355Z,32.84
2023-06-10T12:53:09.237Z,32.82
2023-06-10T12:55:36.612Z,32.80
2023-06-10T12:58:04.559Z,32.89
2023-06-10T13:00:32.076Z,32.94
2023-06-10T13:03:02.285Z,33.04
2023-06-10T13:05:30.724Z,33.20
2023-06-10T13:07:59.074Z,33.34
2023-06-10T13:10:26.936Z,33.45
2023-06-10T13:12:55.916Z,33.59
2023-06-10T13:15:23.575Z,33.69
2023-06-10T13:17:52.319Z,33.90
2023-06-10T13:20:20.453Z,33.98
2023-06-10T13:22:48.960Z,33.97
2023-06-10T13:25:17.238Z,34.05
2023-06-10T13:27:45.071Z,34.08
2023-06-10T13:30:12.800Z,34.20
2023-06-10T13:32:40.350Z,34.32
2023-06-10T13:35:09.168Z,34.40
2023-06-10T13:37:37.439Z,34.41
2023-06-10T13:40:05.840Z,34.66
2023-06-10T13:42:33.402Z,34.85
2023-06-10T13:45:00.719Z,35.04
2023-06-10T13:47:28.014Z,35.31
2023-06-10T13:49:55.361Z,35.47
2023-06-10T13:52:22.640Z,35.46
2023-06-10T13:54:49.889Z,35.50
2023-06-10T13:57:17.268Z,35.45
2023-06-10T13:59:44.914Z,35.45
2023-06-10T14:02:12.286Z,35.59
2023-06-10T14:04:39.679Z,35.50
2023-06-10T14:07:06.945Z,35.56
2023-06-10T14:09:34.467Z,35.89
2023-06-10T14:12:01.844Z,36.11
2023-06-10T14:14:29.170Z,36.34
2023-06-10T14:16:57.093Z,36.44
2023-06-10T14:19:24.530Z,36.50
2023-06-10T14:21:51.789Z,36.42
2023-06-10T14:24:19.443Z,36.41
2023-06-10T14:26:46.888Z,36.46
2023-06-10T14:29:15.446Z,36.59
2023-06-10T14:31:42.962Z,36.95
2023-06-10T14:34:10.452Z,37.25
2023-06-10T14:36:38.327Z,37.70
2023-06-10T14:39:05.836Z,38.40
2023-06-10T14:41:33.233Z,39.34
2023-06-10T14:44:00.405Z,40.82
2023-06-10T14:46:27.709Z,42.56
2023-06-10T14:48:55.013Z,43.98
2023-06-10T14:51:22.395Z,45.29
2023-06-10T14:53:49.950Z,45.82
2023-06-10T14:56:17.345Z,46.70
2023-06-10T14:58:44.822Z,48.03
2023-06-10T15:01:12.048Z,48.77
2023-06-10T15:03:39.328Z,49.46
2023-06-10T15:06:06.572Z,50.25
2023-06-10T15:08:34.342Z,51.53
2023-06-10T15:11:04.154Z,52.11
2023-06-10T15:13:31.568Z,52.59
2023-06-10T15:16:01.032Z,53.21
2023-06-10T15:18:30.744Z,53.15
2023-06-10T15:20:58.026Z,53.26
2023-06-10T15:23:25.745Z,53.86
2023-06-10T15:25:53.000Z,54.68
2023-06-10T15:28:20.328Z,54.72
2023-06-10T15:30:49.747Z,54.89
2023-06-10T15:33:17.029Z,53.72
2023-06-10T15:35:44.623Z,54.40
2023-06-10T15:38:12.051Z,53.02
2023-06-10T15:40:41.995Z,50.73
2023-06-10T15:43:09.210Z,48.48
2023-06-10T15:45:36.502Z,46.35
2023-06-10T15:48:04.358Z,45.87
2023-06-10T15:50:31.959Z,44.62
2023-06-10T15:52:59.487Z,46.05
2023-06-10T15:55:27.589Z,46.59
2023-06-10T15:57:55.350Z,45.30
2023-06-10T16:00:22.685Z,43.79
2023-06-10T16:02:50.001Z,42.91
2023-06-10T16:05:17.520Z,43.95
2023-06-10T16:07:44.976Z,45.82
2023-06-10T16:10:12.218Z,47.43
2023-06-10T16:12:39.477Z,46.35
2023-06-10T16:15:07.802Z,46.58
2023-06-10T16:17:35.404Z,45.64
2023-06-10T16:20:02.878Z,44.08
2023-06-10T16:22:30.198Z,42.40
2023-06-10T16:24:57.454Z,40.67
2023-06-10T16:27:26.463Z,39.75
2023-06-10T16:29:54.267Z,40.93
2023-06-10T16:32:21.584Z,41.19
2023-06-10T16:34:49.460Z,41.04
2023-06-10T16:37:17.164Z,39.28
2023-06-10T16:39:44.483Z,37.52
2023-06-10T16:42:11.691Z,36.38
2023-06-10T16:44:38.934Z,35.85
2023-06-10T16:47:06.478Z,35.22
2023-06-10T16:49:35.437Z,34.49
2023-06-10T16:52:03.282Z,33.81
2023-06-10T16:54:30.604Z,33.23
2023-06-10T16:56:58.009Z,32.75
2023-06-10T16:59:25.275Z,32.37
2023-06-10T17:01:52.593Z,32.07
2023-06-10T17:04:19.902Z,31.75
2023-06-10T17:06:47.298Z,31.50
2023-06-10T17:09:14.559Z,31.21
2023-06-10T17:11:41.826Z,30.86
2023-06-10T17:14:09.100Z,30.65
2023-06-10T17:16:36.670Z,30.42
2023-06-10T17:19:04.117Z,30.15
2023-06-10T17:21:31.730Z,29.96
2023-06-10T17:23:59.196Z,29.84
2023-06-10T17:26:27.962Z,29.71
2023-06-10T17:28:55.524Z,29.48
2023-06-10T17:31:22.793Z,29.31
2023-06-10T17:33:50.175Z,29.20
2023-06-10T17:36:19.140Z,29.12
2023-06-10T17:38:46.525Z,29.03
2023-06-10T17:41:13.946Z,28.96
2023-06-10T17:43:43.069Z,28.85
2023-06-10T17:46:12.606Z,28.68
2023-06-10T17:48:39.881Z,28.57
2023-06-10T17:51:07.034Z,28.43
2023-06-10T17:53:35.097Z,28.30
2023-06-10T17:56:02.829Z,28.19
2023-06-10T17:58:30.043Z,28.13
2023-06-10T18:01:01.669Z,28.00
2023-06-10T18:03:30.054Z,27.93
2023-06-10T18:06:07.038Z,27.84
2023-06-10T18:08:39.200Z,27.77
2023-06-10T18:11:06.537Z,27.67
2023-06-10T18:13:34.413Z,27.51
2023-06-10T18:16:01.689Z,27.42
2023-06-10T18:18:29.703Z,27.34
2023-06-10T18:20:57.575Z,27.26
2023-06-10T18:23:25.885Z,27.19
2023-06-10T18:25:53.120Z,27.13
2023-06-10T18:28:20.402Z,27.03
2023-06-10T18:30:47.909Z,26.89
2023-06-10T18:33:15.378Z,26.81
2023-06-10T18:35:42.661Z,26.70
2023-06-10T18:38:10.286Z,26.60
2023-06-10T18:40:37.493Z,26.49
2023-06-10T18:43:05.229Z,26.39
2023-06-10T18:45:32.593Z,26.27
2023-06-10T18:48:00.217Z,26.19
2023-06-10T18:50:27.821Z,26.11
2023-06-10T18:52:55.017Z,26.02
2023-06-10T18:55:22.291Z,25.92
2023-06-10T18:57:50.182Z,25.83
2023-06-10T19:00:17.856Z,25.74
2023-06-10T19:02:45.384Z,25.66
2023-06-10T19:05:14.335Z,25.55
2023-06-10T19:07:41.591Z,25.46
2023-06-10T19:10:09.180Z,25.38
2023-06-10T19:12:36.433Z,25.28
2023-06-10T19:15:04.545Z,25.19
2023-06-10T19:17:32.234Z,25.10
2023-06-10T19:19:59.597Z,24.98
2023-06-10T19:22:26.881Z,24.91
2023-06-10T19:25:04.454Z,24.83
2023-06-10T19:27:31.920Z,24.76
2023-06-10T19:29:59.427Z,24.71
2023-06-10T19:32:27.699Z,24.66
2023-06-10T19:34:55.027Z,24.61
2023-06-10T19:37:22.297Z,24.57
2023-06-10T19:39:49.894Z,24.54
2023-06-10T19:42:17.188Z,24.48
2023-06-10T19:44:45.410Z,24.42
2023-06-10T19:47:12.754Z,24.36
2023-06-10T19:49:40.010Z,24.29
2023-06-10T19:52:08.038Z,24.21
2023-06-10T19:54:36.673Z,24.17
2023-06-10T19:57:04.627Z,24.09
2023-06-10T19:59:33.920Z,24.02
2023-06-10T20:02:04.200Z,23.93
2023-06-10T20:04:46.774Z,23.87
2023-06-10T20:07:20.265Z,23.80
2023-06-10T20:09:48.093Z,23.69
2023-06-10T20:12:15.374Z,23.61
2023-06-10T20:14:42.589Z,23.50
2023-06-10T20:17:09.845Z,23.42
2023-06-10T20:19:37.004Z,23.31
2023-06-10T20:22:05.167Z,23.22
2023-06-10T20:24:32.823Z,23.19
2023-06-10T20:27:00.516Z,23.15
2023-06-10T20:29:27.838Z,23.08
2023-06-10T20:31:55.132Z,23.02
2023-06-10T20:34:23.029Z,22.97
2023-06-10T20:36:50.365Z,22.92
2023-06-10T20:39:19.143Z,22.86
2023-06-10T20:41:46.637Z,22.79
2023-06-10T20:44:14.882Z,22.72
2023-06-10T20:46:42.223Z,22.66
2023-06-10T20:49:09.994Z,22.59
2023-06-10T20:51:38.786Z,22.54
2023-06-10T20:54:06.150Z,22.47
2023-06-10T20:56:33.533Z,22.40
2023-06-10T20:59:01.091Z,22.32
2023-06-10T21:01:28.677Z,22.27
2023-06-10T21:03:56.161Z,22.19
2023-06-10T21:06:23.940Z,22.15
2023-06-10T21:08:52.376Z,22.10
2023-06-10T21:11:20.012Z,22.06
2023-06-10T21:13:47.372Z,22.05
2023-06-10T21:16:14.795Z,22.02
2023-06-10T21:18:42.342Z,21.96
2023-06-10T21:21:09.768Z,21.93
2023-06-10T21:23:37.055Z,21.86
2023-06-10T21:26:06.513Z,21.79
2023-06-10T21:28:34.578Z,21.71
2023-06-10T21:31:03.632Z,21.66
2023-06-10T21:33:31.136Z,21.61
2023-06-10T21:35:58.668Z,21.57
2023-06-10T21:38:26.437Z,21.54
2023-06-10T21:40:55.412Z,21.49
2023-06-10T21:43:22.640Z,21.45
2023-06-10T21:49:30.972Z,21.31
2023-06-10T21:51:58.381Z,21.24
2023-06-10T21:54:25.691Z,21.18
2023-06-10T21:56:52.949Z,21.15
2023-06-10T21:59:23.552Z,21.09
2023-06-10T22:01:50.845Z,21.03
2023-06-10T22:04:18.548Z,20.98
2023-06-10T22:06:47.055Z,20.91
2023-06-10T22:09:14.317Z,20.85
2023-06-10T22:11:41.658Z,20.80
2023-06-10T22:14:08.903Z,20.73
2023-06-10T22:16:36.159Z,20.68
2023-06-10T22:19:03.735Z,20.62
2023-06-10T22:21:31.440Z,20.59
2023-06-10T22:23:58.825Z,20.55
2023-06-10T22:26:36.865Z,20.48
2023-06-10T22:29:11.120Z,20.41
2023-06-10T22:31:38.413Z,20.36
2023-06-10T22:34:05.646Z,20.32
2023-06-10T22:36:32.997Z,20.29
2023-06-10T22:39:00.394Z,20.25
2023-06-10T22:41:27.926Z,20.22
2023-06-10T22:43:55.266Z,20.21
2023-06-10T22:46:22.508Z,20.21
2023-06-10T22:48:50.299Z,20.19
2023-06-10T22:51:17.873Z,20.19
2023-06-10T22:53:45.122Z,20.14
2023-06-10T22:56:12.416Z,20.09
2023-06-10T22:58:39.606Z,20.06
2023-06-10T23:01:06.855Z,20.04
2023-06-10T23:03:34.519Z,19.96
2023-06-10T23:06:02.148Z,19.91
2023-06-10T23:08:29.442Z,19.86
2023-06-10T23:10:56.778Z,19.80
2023-06-10T23:13:24.031Z,19.77
2023-06-10T23:15:51.225Z,19.70
2023-06-10T23:18:18.509Z,19.68
2023-06-10T23:20:47.655Z,19.66
2023-06-10T23:23:16.119Z,19.62
2023-06-10T23:25:45.750Z,19.59
2023-06-10T23:28:13.189Z,19.56
2023-06-10T23:30:40.694Z,19.51
2023-06-10T23:33:08.391Z,19.47
2023-06-10T23:35:35.775Z,19.43
2023-06-10T23:38:03.121Z,19.43
2023-06-10T23:40:30.722Z,19.39
2023-06-10T23:42:58.028Z,19.36
2023-06-10T23:45:25.313Z,19.30
2023-06-10T23:47:53.665Z,19.26
2023-06-10T23:50:20.909Z,19.25
2023-06-10T23:52:49.750Z,19.19
2023-06-10T23:55:17.225Z,19.15
2023-06-10T23:57:44.736Z,19.10
